Time;durP1;ratioP1;P1;durP2;ratioP2;P2;SDS_P1;SDS_P2;PMS_P1;PMS_P2;Temp;Humidity;BMP_temperature;BMP_pressure;BME280_temperature;BME280_humidity;BME280_pressure;Samples;Min_cycle;Max_cycle;Signal;HPM_P1;HPM_P2
2022/05/03 00:00:12;;;;;;;7.63;6.30;;;6.20;99.90;;;;;;4216564;28;20436;-69
2022/05/03 00:02:45;;;;;;;7.97;6.50;;;6.20;99.90;;;;;;4197907;28;20430;-70
2022/05/03 00:05:13;;;;;;;10.03;7.07;;;6.10;99.90;;;;;;4214436;28;20443;-69
2022/05/03 00:07:51;;;;;;;11.77;6.80;;;6.10;99.90;;;;;;4216286;28;20453;-70
2022/05/03 00:10:09;;;;;;;10.40;7.77;;;6.10;99.90;;;;;;4215477;28;20436;-69
2022/05/03 00:12:13;;;;;;;8.67;5.97;;;6.10;99.90;;;;;;4213651;28;20813;-70
2022/05/03 00:14:21;;;;;;;7.47;5.63;;;6.10;99.90;;;;;;4214269;28;20521;-69
2022/05/03 00:16:23;;;;;;;6.83;5.50;;;6.10;99.90;;;;;;4213877;28;20434;-69
2022/05/03 00:18:25;;;;;;;9.03;6.23;;;6.00;99.90;;;;;;4214644;28;20424;-70
2022/05/03 00:20:26;;;;;;;9.73;7.40;;;5.90;99.90;;;;;;4215934;28;20456;-70
2022/05/03 00:22:29;;;;;;;9.90;7.93;;;6.00;99.90;;;;;;4214669;28;20511;-70
2022/05/03 00:24:30;;;;;;;9.60;7.43;;;6.00;99.90;;;;;;4214154;28;20564;-69
2022/05/03 00:26:32;;;;;;;12.43;9.67;;;6.10;99.90;;;;;;4213899;28;20493;-69
2022/05/03 00:28:34;;;;;;;12.33;8.40;;;6.20;99.90;;;;;;4198333;28;20414;-69
2022/05/03 00:30:36;;;;;;;10.87;8.27;;;6.30;99.90;;;;;;4197370;28;20448;-69
2022/05/03 00:32:39;;;;;;;13.03;9.03;;;6.40;99.90;;;;;;4198795;28;20410;-69
2022/05/03 00:34:39;;;;;;;11.43;8.03;;;6.40;99.90;;;;;;4198848;28;20759;-70
2022/05/03 00:36:40;;;;;;;11.27;8.80;;;6.30;99.90;;;;;;4196025;28;20419;-70
2022/05/03 00:38:41;;;;;;;9.90;7.53;;;6.20;99.90;;;;;;4199766;28;20213;-69
2022/05/03 00:40:50;;;;;;;9.40;6.93;;;6.10;99.90;;;;;;4186353;28;20187;-70
2022/05/03 00:43:15;;;;;;;9.13;6.87;;;6.00;99.90;;;;;;4181291;28;20167;-70
2022/05/03 00:45:45;;;;;;;7.60;6.17;;;6.00;99.90;;;;;;4180701;28;20505;-69
2022/05/03 00:47:54;;;;;;;8.67;6.90;;;5.90;99.90;;;;;;4180460;28;20492;-69
2022/05/03 00:50:11;;;;;;;9.50;6.87;;;5.90;99.90;;;;;;4180757;28;20441;-70
2022/05/03 00:52:28;;;;;;;9.67;6.80;;;5.90;99.90;;;;;;4180330;28;20460;-69
2022/05/03 00:55:21;;;;;;;10.00;7.27;;;5.90;99.90;;;;;;4181378;28;20438;-70
2022/05/03 00:57:38;;;;;;;9.33;7.00;;;5.80;99.90;;;;;;4181568;28;20881;-69
2022/05/03 01:00:06;;;;;;;10.50;8.00;;;5.80;99.90;;;;;;4182518;28;20448;-70
2022/05/03 01:02:08;;;;;;;11.07;8.00;;;5.80;99.90;;;;;;4180802;28;20415;-70
2022/05/03 01:04:26;;;;;;;11.33;8.30;;;5.80;99.90;;;;;;4180961;28;20458;-70
2022/05/03 01:06:50;;;;;;;10.43;7.47;;;5.70;99.90;;;;;;4179426;28;20560;-70
2022/05/03 01:09:01;;;;;;;11.07;8.40;;;5.60;99.90;;;;;;4181124;28;20492;-70
2022/05/03 01:11:30;;;;;;;11.40;8.10;;;5.60;99.90;;;;;;4179094;28;20827;-70
2022/05/03 01:13:36;;;;;;;11.23;8.03;;;5.60;99.90;;;;;;4181222;28;20435;-70
2022/05/03 01:15:46;;;;;;;10.73;7.10;;;5.50;99.90;;;;;;4162002;28;20439;-69
2022/05/03 01:18:02;;;;;;;11.33;8.43;;;5.50;99.90;;;;;;4180328;28;20633;-70
2022/05/03 01:20:08;;;;;;;11.27;7.57;;;5.50;99.90;;;;;;4180634;28;20912;-70
2022/05/03 01:22:46;;;;;;;12.23;8.13;;;5.50;99.90;;;;;;4180490;28;20983;-70
2022/05/03 01:24:57;;;;;;;9.77;7.57;;;5.40;99.90;;;;;;4180584;28;20516;-70
2022/05/03 01:27:32;;;;;;;11.53;7.93;;;5.40;99.90;;;;;;4179454;28;20504;-69
2022/05/03 01:29:35;;;;;;;11.27;8.07;;;5.30;99.90;;;;;;4182304;28;20461;-71
2022/05/03 01:31:36;;;;;;;10.87;8.57;;;5.30;99.90;;;;;;4181644;28;20422;-70
2022/05/03 01:33:45;;;;;;;10.70;7.57;;;5.30;99.90;;;;;;4181118;28;20425;-70
2022/05/03 01:35:51;;;;;;;11.40;8.63;;;5.30;99.90;;;;;;4179095;28;20788;-70
2022/05/03 01:38:20;;;;;;;12.07;8.37;;;5.30;99.90;;;;;;4180404;28;20551;-70
2022/05/03 01:41:03;;;;;;;11.57;8.60;;;5.20;99.90;;;;;;4179977;28;20972;-70
2022/05/03 01:43:15;;;;;;;12.43;8.90;;;5.20;99.90;;;;;;4179314;28;20406;-70
2022/05/03 01:45:41;;;;;;;10.37;7.87;;;5.10;99.90;;;;;;4181109;28;20410;-70
2022/05/03 01:51:09;;;;;;;11.47;7.77;;;5.20;99.90;;;;;;4181631;28;20405;-70
2022/05/03 01:53:35;;;;;;;9.80;7.23;;;5.10;99.90;;;;;;4179486;28;20825;-70
2022/05/03 01:55:42;;;;;;;15.00;8.57;;;5.10;99.90;;;;;;4178562;28;21011;-70
2022/05/03 01:58:33;;;;;;;12.20;8.60;;;5.10;99.90;;;;;;4180311;28;20410;-70
2022/05/03 02:00:38;;;;;;;16.33;11.10;;;5.10;99.90;;;;;;4179151;28;20509;-70
2022/05/03 02:03:03;;;;;;;17.60;11.80;;;5.20;99.90;;;;;;4179345;28;20779;-70
2022/05/03 02:05:20;;;;;;;16.60;11.67;;;5.30;99.90;;;;;;4179641;28;20420;-70
2022/05/03 02:07:29;;;;;;;19.33;12.00;;;5.40;99.90;;;;;;4180112;28;20472;-70
2022/05/03 02:09:58;;;;;;;19.83;12.87;;;5.40;99.90;;;;;;4180359;28;20442;-70
2022/05/03 02:12:16;;;;;;;20.60;14.20;;;5.60;99.90;;;;;;4180780;28;20427;-70
2022/05/03 02:14:45;;;;;;;21.47;14.27;;;5.60;99.90;;;;;;4180435;28;20500;-70
2022/05/03 02:17:31;;;;;;;20.17;13.63;;;5.70;99.90;;;;;;4179237;28;20426;-69
2022/05/03 02:20:02;;;;;;;22.13;13.73;;;5.80;99.90;;;;;;4180631;28;20448;-70
2022/05/03 02:22:22;;;;;;;19.57;13.57;;;5.70;99.90;;;;;;4183757;28;20422;-70
2022/05/03 02:24:45;;;;;;;19.00;12.57;;;5.70;99.90;;;;;;4179489;28;20426;-70
2022/05/03 02:27:09;;;;;;;21.53;13.80;;;5.60;99.90;;;;;;4178585;28;20434;-71
2022/05/03 02:29:15;;;;;;;19.83;13.30;;;5.60;99.90;;;;;;4196121;28;20503;-70
2022/05/03 02:31:30;;;;;;;18.60;13.37;;;5.70;99.90;;;;;;4179519;28;20402;-70
2022/05/03 02:33:53;;;;;;;21.47;14.30;;;5.70;99.90;;;;;;4178800;28;20504;-70
2022/05/03 02:35:58;;;;;;;23.67;15.23;;;5.70;99.90;;;;;;4193650;28;20475;-70
2022/05/03 02:38:05;;;;;;;21.37;14.87;;;5.70;99.90;;;;;;4195739;28;20460;-70
2022/05/03 02:40:09;;;;;;;25.07;15.80;;;5.70;99.90;;;;;;4197243;28;21005;-70
2022/05/03 02:42:11;;;;;;;21.30;14.27;;;5.80;99.90;;;;;;4191815;28;20433;-70
2022/05/03 02:44:13;;;;;;;23.53;14.37;;;5.70;99.90;;;;;;4180238;28;20413;-70
2022/05/03 02:46:48;;;;;;;16.67;11.40;;;5.60;99.90;;;;;;4180092;28;20798;-70
2022/05/03 02:49:02;;;;;;;23.90;14.33;;;5.60;99.90;;;;;;4180061;28;20410;-69
2022/05/03 02:51:07;;;;;;;20.20;13.47;;;5.60;99.90;;;;;;4195795;28;20425;-70
2022/05/03 02:53:51;;;;;;;16.53;11.90;;;5.50;99.90;;;;;;4196351;28;20842;-70
2022/05/03 02:56:01;;;;;;;19.00;12.43;;;5.40;99.90;;;;;;4195885;28;20401;-70
2022/05/03 02:58:29;;;;;;;17.70;12.10;;;5.40;99.90;;;;;;4197239;28;20444;-70
2022/05/03 03:03:27;;;;;;;16.57;11.90;;;5.30;99.90;;;;;;4196177;28;20405;-70
2022/05/03 03:05:30;;;;;;;21.50;13.63;;;5.30;99.90;;;;;;4195560;28;20417;-70
2022/05/03 03:07:46;;;;;;;22.67;13.37;;;5.30;99.90;;;;;;4196333;28;20504;-70
2022/05/03 03:09:56;;;;;;;17.33;12.30;;;5.30;99.90;;;;;;4196482;28;20478;-70
2022/05/03 03:12:03;;;;;;;18.27;13.07;;;5.30;99.90;;;;;;4196141;28;20427;-71
2022/05/03 03:14:43;;;;;;;15.63;11.50;;;5.20;99.90;;;;;;4196390;28;21016;-70
2022/05/03 03:16:54;;;;;;;13.63;9.00;;;5.10;99.90;;;;;;4197850;28;20429;-70
2022/05/03 03:18:58;;;;;;;13.37;9.17;;;5.00;99.90;;;;;;4200254;28;21026;-70
2022/05/03 03:21:04;;;;;;;14.33;9.00;;;4.80;99.90;;;;;;4200063;28;20788;-71
2022/05/03 03:23:06;;;;;;;14.57;9.67;;;4.80;99.90;;;;;;4199224;28;20448;-70
2022/05/03 03:25:13;;;;;;;13.00;9.27;;;4.70;99.90;;;;;;4200450;28;20868;-70
2022/05/03 03:27:14;;;;;;;12.97;8.80;;;4.70;99.90;;;;;;4198666;28;20515;-70
2022/05/03 03:29:18;;;;;;;15.80;9.13;;;4.70;99.90;;;;;;4200388;28;20455;-70
2022/05/03 03:31:21;;;;;;;11.30;8.17;;;4.70;99.90;;;;;;4199069;28;20416;-70
2022/05/03 03:33:23;;;;;;;11.50;9.03;;;4.60;99.90;;;;;;4199353;28;20512;-70
2022/05/03 03:35:25;;;;;;;13.40;9.57;;;4.60;99.90;;;;;;4198498;28;20445;-70
2022/05/03 03:37:30;;;;;;;13.90;10.23;;;4.60;99.90;;;;;;4199128;28;20448;-70
2022/05/03 03:39:31;;;;;;;14.27;10.77;;;4.60;99.90;;;;;;4198590;28;20467;-70
2022/05/03 03:41:33;;;;;;;15.27;11.03;;;4.60;99.90;;;;;;4199346;28;20480;-70
2022/05/03 03:43:33;;;;;;;14.83;10.70;;;4.60;99.90;;;;;;4199576;28;20460;-70
2022/05/03 03:45:34;;;;;;;14.07;10.53;;;4.60;99.90;;;;;;4198539;28;20770;-69
2022/05/03 03:47:36;;;;;;;16.00;10.50;;;4.60;99.90;;;;;;4181521;28;20329;-71
2022/05/03 03:49:37;;;;;;;16.77;10.53;;;4.60;99.90;;;;;;4199327;28;20224;-71
2022/05/03 03:51:39;;;;;;;16.07;10.10;;;4.60;99.90;;;;;;4197661;28;20456;-70
2022/05/03 03:53:40;;;;;;;15.70;11.13;;;4.50;99.90;;;;;;4197120;28;20963;-71
2022/05/03 03:55:42;;;;;;;16.37;11.13;;;4.50;99.90;;;;;;4196487;28;20537;-71
2022/05/03 03:57:44;;;;;;;16.10;11.17;;;4.50;99.90;;;;;;4195807;28;20784;-71
2022/05/03 03:59:45;;;;;;;15.27;10.40;;;4.50;99.90;;;;;;4197041;28;20547;-71
2022/05/03 04:01:48;;;;;;;21.03;12.97;;;4.50;99.90;;;;;;4196227;28;20435;-71
2022/05/03 04:03:49;;;;;;;18.90;12.17;;;4.60;99.90;;;;;;4195596;28;20209;-71
2022/05/03 04:05:50;;;;;;;17.43;12.60;;;4.60;99.90;;;;;;4196359;28;20428;-71
2022/05/03 04:07:51;;;;;;;22.57;14.30;;;4.60;99.90;;;;;;4195723;28;21001;-71
2022/05/03 04:09:52;;;;;;;20.53;14.70;;;4.70;99.90;;;;;;4197380;28;20202;-70
2022/05/03 04:11:53;;;;;;;21.90;15.13;;;4.70;99.90;;;;;;4199301;28;20893;-71
2022/05/03 04:13:54;;;;;;;22.67;15.80;;;4.70;99.90;;;;;;4198125;28;20178;-72
2022/05/03 04:15:55;;;;;;;22.57;14.27;;;4.70;99.90;;;;;;4198720;28;20424;-71
2022/05/03 04:17:55;;;;;;;20.00;13.87;;;4.70;99.90;;;;;;4197928;28;20267;-71
2022/05/03 04:19:56;;;;;;;20.10;14.23;;;4.70;99.90;;;;;;4198100;28;20217;-71
2022/05/03 04:22:12;;;;;;;18.83;13.17;;;4.70;99.90;;;;;;4199322;28;20217;-70
2022/05/03 04:24:13;;;;;;;20.47;13.83;;;4.70;99.90;;;;;;4199525;28;20178;-70
2022/05/03 04:26:14;;;;;;;20.17;13.53;;;4.70;99.90;;;;;;4197768;28;20954;-68
2022/05/03 04:28:15;;;;;;;19.93;13.00;;;4.80;99.90;;;;;;4198279;28;20840;-70
2022/05/03 04:30:16;;;;;;;17.37;11.87;;;4.80;99.90;;;;;;4199272;28;20521;-70
2022/05/03 04:32:17;;;;;;;19.07;12.03;;;4.80;99.90;;;;;;4199424;28;20174;-70
2022/05/03 04:34:17;;;;;;;17.27;12.47;;;4.80;99.90;;;;;;4199428;28;20273;-70
2022/05/03 04:36:18;;;;;;;19.87;11.93;;;4.90;99.90;;;;;;4195767;28;20182;-70
2022/05/03 04:38:18;;;;;;;15.47;11.13;;;4.90;99.90;;;;;;4199373;28;20187;-70
2022/05/03 04:40:20;;;;;;;23.50;14.20;;;5.00;99.90;;;;;;4199533;28;20206;-70
2022/05/03 04:42:20;;;;;;;18.63;12.60;;;5.10;99.90;;;;;;4198352;28;20190;-70
2022/05/03 04:44:21;;;;;;;19.43;12.80;;;5.10;99.90;;;;;;4199362;28;20450;-71
2022/05/03 04:46:22;;;;;;;21.33;13.87;;;5.10;99.90;;;;;;4198779;28;20562;-70
2022/05/03 04:48:22;;;;;;;16.07;11.57;;;5.20;99.90;;;;;;4199697;28;20704;-70
2022/05/03 04:50:23;;;;;;;16.33;11.63;;;5.30;99.90;;;;;;4190768;28;20219;-70
2022/05/03 04:52:23;;;;;;;22.03;12.70;;;5.30;99.90;;;;;;4190349;28;20221;-70
2022/05/03 04:54:24;;;;;;;22.50;12.47;;;5.30;99.90;;;;;;4199553;28;20674;-70
2022/05/03 04:56:25;;;;;;;22.73;12.53;;;5.40;99.90;;;;;;4197838;28;20205;-70
2022/05/03 04:58:26;;;;;;;15.30;10.93;;;5.40;99.90;;;;;;4198358;28;20474;-70
2022/05/03 05:00:27;;;;;;;16.77;10.57;;;5.50;99.90;;;;;;4199253;28;20195;-70
2022/05/03 05:02:28;;;;;;;15.30;10.53;;;5.40;99.90;;;;;;4179126;28;20221;-71
2022/05/03 05:04:29;;;;;;;15.57;9.63;;;5.30;99.90;;;;;;4196183;28;20662;-71
2022/05/03 05:06:30;;;;;;;13.30;9.77;;;5.30;99.90;;;;;;4195586;28;20528;-71
2022/05/03 05:08:30;;;;;;;14.63;9.90;;;5.30;99.90;;;;;;4194946;28;20249;-71
2022/05/03 05:10:32;;;;;;;11.93;9.27;;;5.30;99.90;;;;;;4195093;28;20203;-71
2022/05/03 05:12:32;;;;;;;13.57;9.93;;;5.30;99.90;;;;;;4196265;28;20263;-71
2022/05/03 05:14:33;;;;;;;14.53;9.70;;;5.40;99.90;;;;;;4195042;28;20417;-71
2022/05/03 05:16:34;;;;;;;14.73;9.63;;;5.40;99.90;;;;;;4194308;28;20745;-71
2022/05/03 05:18:35;;;;;;;12.53;10.00;;;5.40;99.90;;;;;;4194847;28;20291;-71
2022/05/03 05:20:36;;;;;;;12.47;9.37;;;5.40;99.90;;;;;;4194687;28;20205;-71
2022/05/03 05:22:36;;;;;;;12.33;9.43;;;5.50;99.90;;;;;;4196012;28;20198;-71
2022/05/03 05:24:37;;;;;;;11.67;8.83;;;5.50;99.90;;;;;;4196149;28;20202;-71
2022/05/03 05:26:38;;;;;;;11.80;8.53;;;5.40;99.90;;;;;;4195353;28;20193;-71
2022/05/03 05:28:39;;;;;;;14.00;10.40;;;5.50;99.90;;;;;;4196034;28;20773;-70
2022/05/03 05:30:41;;;;;;;16.77;11.70;;;5.50;99.90;;;;;;4197358;28;20429;-71
2022/05/03 05:32:41;;;;;;;14.20;9.90;;;5.60;99.90;;;;;;4196190;28;20252;-71
2022/05/03 05:34:42;;;;;;;18.57;12.20;;;5.70;99.90;;;;;;4195767;28;20425;-71
2022/05/03 05:36:43;;;;;;;17.30;11.87;;;5.80;99.90;;;;;;4194338;28;20175;-71
2022/05/03 05:38:44;;;;;;;15.43;10.80;;;5.90;99.90;;;;;;4195803;28;20171;-71
2022/05/03 05:40:47;;;;;;;17.97;12.10;;;6.00;99.90;;;;;;4194794;28;20433;-71
2022/05/03 05:42:49;;;;;;;19.07;12.03;;;6.00;99.90;;;;;;4194483;28;20585;-71
2022/05/03 05:44:50;;;;;;;17.80;12.33;;;6.10;99.90;;;;;;4195743;28;20426;-71
2022/05/03 05:46:52;;;;;;;17.97;11.30;;;6.20;99.90;;;;;;4195135;28;20426;-71
2022/05/03 05:48:53;;;;;;;18.83;12.23;;;6.20;99.90;;;;;;4194450;28;20195;-71
2022/05/03 05:50:53;;;;;;;15.37;10.37;;;6.20;99.90;;;;;;4195757;28;20410;-71
2022/05/03 05:55:13;;;;;;;17.00;11.70;;;6.30;99.90;;;;;;4195252;28;20167;-71
2022/05/03 05:57:14;;;;;;;16.17;11.90;;;6.40;99.90;;;;;;4194936;28;20422;-71
2022/05/03 05:59:15;;;;;;;13.20;10.50;;;6.40;99.90;;;;;;4195287;28;20649;-71
2022/05/03 06:01:15;;;;;;;16.27;10.70;;;6.50;99.90;;;;;;4195379;28;20669;-71
2022/05/03 06:03:16;;;;;;;15.67;10.70;;;6.60;99.90;;;;;;4195321;28;20646;-71
2022/05/03 06:05:17;;;;;;;16.70;11.00;;;6.60;99.90;;;;;;4195070;28;20998;-71
2022/05/03 06:07:17;;;;;;;19.00;13.10;;;6.70;99.90;;;;;;4194798;28;20203;-71
2022/05/03 06:09:18;;;;;;;14.83;10.37;;;6.80;99.90;;;;;;4195380;28;20192;-71
2022/05/03 06:11:19;;;;;;;15.57;11.23;;;6.90;99.90;;;;;;4195323;28;20171;-71
2022/05/03 06:13:19;;;;;;;15.37;11.07;;;7.00;99.90;;;;;;4194025;28;20225;-71
2022/05/03 06:15:20;;;;;;;18.37;12.13;;;7.10;99.90;;;;;;4194687;28;20187;-70
2022/05/03 06:17:21;;;;;;;15.57;11.57;;;7.20;99.90;;;;;;4193776;28;20190;-71
2022/05/03 06:19:22;;;;;;;14.17;11.00;;;7.30;99.90;;;;;;4193543;28;20216;-71
2022/05/03 06:21:23;;;;;;;15.87;11.53;;;7.40;99.90;;;;;;4193834;28;20195;-71
2022/05/03 06:23:24;;;;;;;16.27;11.57;;;7.50;99.90;;;;;;4195198;28;20426;-71
2022/05/03 06:25:25;;;;;;;16.17;11.30;;;7.60;99.90;;;;;;4191841;28;20844;-71
2022/05/03 06:27:25;;;;;;;15.23;11.13;;;7.80;99.90;;;;;;4180486;28;20480;-71
2022/05/03 06:29:26;;;;;;;12.70;10.30;;;7.90;99.90;;;;;;4177264;28;20200;-71
2022/05/03 06:31:29;;;;;;;13.53;10.53;;;8.10;99.90;;;;;;4190119;28;20691;-71
2022/05/03 06:33:30;;;;;;;15.83;11.77;;;8.30;99.90;;;;;;4195053;28;20210;-71
2022/05/03 06:35:31;;;;;;;12.27;10.27;;;8.50;99.90;;;;;;4192966;28;20185;-71
2022/05/03 06:37:40;;;;;;;15.00;11.07;;;8.60;99.90;;;;;;4193691;28;20619;-71
2022/05/03 06:39:41;;;;;;;13.13;10.73;;;8.80;99.90;;;;;;4193807;28;20213;-71
2022/05/03 06:41:41;;;;;;;17.23;11.07;;;9.00;99.90;;;;;;4194438;28;20246;-74
2022/05/03 06:43:42;;;;;;;12.60;10.67;;;9.20;99.90;;;;;;4182840;28;20203;-69
2022/05/03 06:45:43;;;;;;;11.53;9.20;;;9.30;99.90;;;;;;4188677;28;20190;-70
2022/05/03 06:47:45;;;;;;;13.60;9.90;;;9.60;99.90;;;;;;4189618;28;20223;-70
2022/05/03 06:49:45;;;;;;;14.47;10.17;;;9.70;99.90;;;;;;4191128;28;20318;-70
2022/05/03 06:51:46;;;;;;;12.23;9.80;;;9.90;99.90;;;;;;4194457;28;20207;-71
2022/05/03 06:53:47;;;;;;;12.60;10.23;;;10.00;99.90;;;;;;4194580;28;20183;-70
2022/05/03 06:55:48;;;;;;;12.77;10.10;;;10.30;99.90;;;;;;4194756;28;20184;-70
2022/05/03 06:57:48;;;;;;;12.23;10.53;;;10.50;99.90;;;;;;4196352;28;20305;-71
2022/05/03 06:59:49;;;;;;;14.17;10.97;;;10.70;99.90;;;;;;4195567;28;20206;-70
2022/05/03 07:01:50;;;;;;;13.90;11.00;;;10.90;99.90;;;;;;4196787;28;20267;-70
2022/05/03 07:03:51;;;;;;;17.53;11.40;;;11.10;99.90;;;;;;4196669;28;20639;-70
2022/05/03 07:05:52;;;;;;;15.00;11.13;;;11.30;99.90;;;;;;4195939;28;20689;-70
2022/05/03 07:07:53;;;;;;;16.70;11.97;;;11.40;99.90;;;;;;4196893;28;20237;-70
2022/05/03 07:09:56;;;;;;;16.57;12.30;;;11.30;99.90;;;;;;4195375;28;20286;-71
2022/05/03 07:11:56;;;;;;;14.93;10.70;;;11.40;99.90;;;;;;4195399;28;20584;-70
2022/05/03 07:13:57;;;;;;;16.07;11.50;;;11.60;99.70;;;;;;4196486;28;20175;-70
2022/05/03 07:15:59;;;;;;;15.63;11.77;;;11.80;99.90;;;;;;4195632;28;20262;-71
2022/05/03 07:22:46;;;;;;;16.67;11.90;;;12.60;98.30;;;;;;4197050;28;20194;-71
2022/05/03 07:24:47;;;;;;;17.53;10.87;;;12.70;97.40;;;;;;4195772;28;20247;-71
2022/05/03 07:26:48;;;;;;;18.07;10.67;;;12.80;96.90;;;;;;4195934;28;20257;-71
2022/05/03 07:28:51;;;;;;;15.40;9.77;;;12.80;96.60;;;;;;4196421;28;20195;-71
2022/05/03 07:30:51;;;;;;;12.60;9.77;;;13.00;95.20;;;;;;4195697;28;20187;-71
2022/05/03 07:32:52;;;;;;;8.77;6.97;;;13.00;95.30;;;;;;4196840;28;20187;-72
2022/05/03 07:34:53;;;;;;;9.67;7.60;;;13.10;92.80;;;;;;4196615;28;20209;-71
2022/05/03 07:36:53;;;;;;;10.80;7.93;;;13.20;94.70;;;;;;4194439;28;20184;-71
2022/05/03 07:38:54;;;;;;;8.83;6.07;;;13.10;95.20;;;;;;4195408;28;20302;-71
2022/05/03 07:40:58;;;;;;;7.63;5.90;;;13.10;95.10;;;;;;4195039;28;20211;-71
2022/05/03 07:43:00;;;;;;;7.27;6.57;;;13.30;90.90;;;;;;4195681;28;20262;-71
2022/05/03 07:45:01;;;;;;;6.57;5.27;;;13.30;89.10;;;;;;4195102;28;20368;-71
2022/05/03 07:47:02;;;;;;;6.30;5.63;;;13.30;90.40;;;;;;4193792;28;20191;-71
2022/05/03 07:49:03;;;;;;;5.27;4.77;;;13.20;90.00;;;;;;4196669;28;20213;-71
2022/05/03 07:51:04;;;;;;;7.47;5.53;;;13.10;92.10;;;;;;4195018;28;20187;-69
2022/05/03 07:53:04;;;;;;;5.63;5.00;;;13.10;89.50;;;;;;4195921;28;20280;-69
2022/05/03 07:55:08;;;;;;;5.80;5.10;;;13.30;90.10;;;;;;4195913;28;20195;-72
2022/05/03 07:57:12;;;;;;;6.67;4.63;;;13.50;86.90;;;;;;4194822;28;20810;-71
2022/05/03 07:59:13;;;;;;;6.30;4.90;;;13.80;79.30;;;;;;4191648;28;20203;-67
2022/05/03 08:01:14;;;;;;;6.13;5.00;;;13.90;81.50;;;;;;4195821;28;20283;-68
2022/05/03 08:03:16;;;;;;;5.63;4.53;;;13.90;78.30;;;;;;4196956;28;20275;-68
2022/05/03 08:05:17;;;;;;;6.37;4.93;;;14.10;77.90;;;;;;4196583;28;20183;-68
2022/05/03 08:07:19;;;;;;;4.90;4.50;;;14.20;76.60;;;;;;4196386;28;20874;-70
2022/05/03 08:09:19;;;;;;;7.53;4.73;;;14.40;73.90;;;;;;4195471;28;20401;-70
2022/05/03 08:11:20;;;;;;;5.40;4.70;;;14.70;72.00;;;;;;4195308;28;20180;-69
2022/05/03 08:13:21;;;;;;;4.57;3.80;;;14.60;70.10;;;;;;4196572;28;20258;-66
2022/05/03 08:15:22;;;;;;;4.93;3.77;;;14.90;71.90;;;;;;4194865;28;20885;-69
2022/05/03 08:17:27;;;;;;;4.20;3.80;;;15.10;73.10;;;;;;4196580;28;20710;-70
2022/05/03 08:19:28;;;;;;;4.20;3.80;;;15.00;70.70;;;;;;4196456;28;20216;-70
2022/05/03 08:21:28;;;;;;;8.77;4.00;;;15.20;73.00;;;;;;4194963;28;20186;-72
2022/05/03 08:23:29;;;;;;;4.87;4.37;;;15.50;64.90;;;;;;4196403;28;20183;-69
2022/05/03 08:25:32;;;;;;;4.00;3.53;;;15.40;69.20;;;;;;4194516;28;20191;-69
2022/05/03 08:27:36;;;;;;;4.67;3.80;;;15.40;64.20;;;;;;4196008;28;20972;-68
2022/05/03 08:29:36;;;;;;;4.63;3.43;;;15.50;61.90;;;;;;4194045;28;20930;-69
2022/05/03 08:31:37;;;;;;;4.40;3.83;;;15.70;64.70;;;;;;4195167;28;20191;-68
2022/05/03 08:33:38;;;;;;;4.57;4.17;;;15.80;65.50;;;;;;4195925;28;20279;-69
2022/05/03 08:35:39;;;;;;;5.93;4.00;;;15.80;60.00;;;;;;4195632;28;20241;-69
2022/05/03 08:42:18;;;;;;;5.20;4.40;;;15.60;61.80;;;;;;4196980;28;20210;-70
2022/05/03 08:44:19;;;;;;;4.77;4.37;;;15.80;64.80;;;;;;4207872;28;20269;-71
2022/05/03 08:46:21;;;;;;;5.10;4.60;;;16.10;62.50;;;;;;4198626;28;20876;-70
2022/05/03 08:48:29;;;;;;;4.57;3.73;;;16.10;66.80;;;;;;4181525;28;20702;-71
2022/05/03 08:50:32;;;;;;;5.13;4.30;;;16.00;62.80;;;;;;4196031;28;20655;-71
2022/05/03 08:52:58;;;;;;;5.70;4.77;;;15.90;60.70;;;;;;4211455;28;20195;-69
2022/05/03 08:55:00;;;;;;;5.17;4.57;;;15.80;59.10;;;;;;4184260;28;20165;-70
2022/05/03 08:57:06;;;;;;;5.33;4.53;;;16.10;59.20;;;;;;4213884;28;20699;-71
2022/05/03 08:59:08;;;;;;;4.43;4.00;;;16.10;59.30;;;;;;4200887;28;20249;-70
2022/05/03 09:01:10;;;;;;;4.83;4.33;;;15.70;59.00;;;;;;4199200;28;20247;-69
2022/05/03 09:03:12;;;;;;;5.20;4.70;;;15.70;62.20;;;;;;4213130;28;20240;-69
2022/05/03 09:05:14;;;;;;;6.67;4.77;;;16.00;62.80;;;;;;4201439;28;20187;-69
2022/05/03 09:07:21;;;;;;;7.03;5.20;;;16.10;61.10;;;;;;4210388;28;20278;-70
2022/05/03 09:09:22;;;;;;;8.97;4.60;;;16.50;58.10;;;;;;4202900;28;20266;-70
2022/05/03 09:11:23;;;;;;;9.93;5.03;;;17.30;54.20;;;;;;4211042;28;20188;-70
2022/05/03 09:13:28;;;;;;;5.73;4.70;;;17.60;59.40;;;;;;4202345;28;20202;-69
2022/05/03 09:15:33;;;;;;;7.17;5.27;;;17.60;54.30;;;;;;4208592;28;20175;-69
2022/05/03 09:17:44;;;;;;;4.47;4.07;;;18.00;56.90;;;;;;4203073;28;20242;-70
2022/05/03 09:19:44;;;;;;;6.13;4.90;;;18.20;52.80;;;;;;4206476;28;20845;-66
2022/05/03 09:24:09;;;;;;;4.30;3.90;;;18.40;50.30;;;;;;4203429;28;20198;-69
2022/05/03 09:26:18;;;;;;;4.00;3.60;;;19.00;49.10;;;;;;4208263;28;20273;-68
2022/05/03 09:28:22;;;;;;;4.73;4.33;;;18.40;47.40;;;;;;4200732;28;20207;-68
2022/05/03 09:30:22;;;;;;;5.27;4.00;;;18.10;49.10;;;;;;4200138;28;20211;-68
2022/05/03 09:32:43;;;;;;;9.27;4.10;;;17.50;52.10;;;;;;4195728;28;20862;-69
2022/05/03 09:34:44;;;;;;;6.50;4.53;;;17.10;52.20;;;;;;4210318;28;20595;-68
2022/05/03 09:36:56;;;;;;;14.50;5.70;;;17.20;52.90;;;;;;4196248;28;20188;-69
2022/05/03 09:38:57;;;;;;;5.07;4.30;;;17.00;53.00;;;;;;4179517;28;20316;-68
2022/05/03 09:41:14;;;;;;;5.90;4.10;;;17.20;54.60;;;;;;4209916;28;20309;-69
2022/05/03 09:43:16;;;;;;;4.57;4.17;;;17.50;53.00;;;;;;4199718;28;20657;-68
2022/05/03 09:45:25;;;;;;;4.40;4.00;;;17.70;52.10;;;;;;4207956;28;20211;-68
2022/05/03 09:47:33;;;;;;;4.20;3.80;;;18.20;50.40;;;;;;4192815;28;20666;-67
2022/05/03 09:49:36;;;;;;;5.47;4.10;;;18.30;51.30;;;;;;4195160;28;20857;-68
2022/05/03 09:51:38;;;;;;;5.97;4.40;;;18.50;51.30;;;;;;4200910;28;20639;-68
2022/05/03 09:53:39;;;;;;;3.90;3.50;;;18.60;50.80;;;;;;4203685;28;20190;-67
2022/05/03 09:55:41;;;;;;;4.27;3.50;;;19.00;48.20;;;;;;4199450;28;20989;-69
2022/05/03 09:57:44;;;;;;;3.30;3.00;;;19.10;50.20;;;;;;4203566;28;20192;-68
2022/05/03 09:59:47;;;;;;;4.83;4.00;;;19.70;44.90;;;;;;4195779;28;20292;-68
2022/05/03 10:01:48;;;;;;;4.67;4.07;;;19.90;47.80;;;;;;4201329;28;20293;-71
2022/05/03 10:03:50;;;;;;;5.40;4.47;;;19.50;46.30;;;;;;4203756;28;20579;-70
2022/05/03 10:05:51;;;;;;;4.40;4.00;;;19.60;49.30;;;;;;4201406;28;20705;-70
2022/05/03 10:07:53;;;;;;;5.40;4.60;;;19.70;48.70;;;;;;4201639;28;20295;-70
2022/05/03 10:09:54;;;;;;;4.73;4.03;;;19.20;48.60;;;;;;4203266;28;20211;-69
2022/05/03 10:11:54;;;;;;;7.20;4.93;;;18.90;48.70;;;;;;4202677;28;20195;-69
2022/05/03 10:13:55;;;;;;;4.20;3.80;;;18.40;48.70;;;;;;4196543;28;20194;-70
2022/05/03 10:21:00;;;;;;;4.67;4.20;;;18.30;52.30;;;;;;4178190;28;20226;-70
2022/05/03 10:23:01;;;;;;;4.43;4.03;;;18.30;51.70;;;;;;4208632;28;20193;-71
2022/05/03 10:25:04;;;;;;;5.30;4.27;;;18.40;51.00;;;;;;4193116;28;20187;-71
2022/05/03 10:27:05;;;;;;;4.30;3.90;;;18.10;51.90;;;;;;4208443;28;20190;-70
2022/05/03 10:29:09;;;;;;;4.13;3.73;;;17.60;53.30;;;;;;4191646;28;20204;-68
2022/05/03 10:31:13;;;;;;;4.17;3.77;;;17.70;55.20;;;;;;4196567;28;20230;-67
2022/05/03 10:33:20;;;;;;;4.43;3.87;;;17.80;53.70;;;;;;4206530;28;20184;-70
2022/05/03 10:35:34;;;;;;;5.43;3.27;;;18.10;51.30;;;;;;4197667;28;20270;-71
2022/05/03 10:37:36;;;;;;;3.83;3.50;;;18.00;50.20;;;;;;4203777;28;20187;-71
2022/05/03 10:39:51;;;;;;;3.70;3.40;;;17.90;53.60;;;;;;4200537;28;20842;-69
2022/05/03 10:42:12;;;;;;;3.90;3.50;;;18.40;49.80;;;;;;4202623;28;20184;-70
2022/05/03 10:44:53;;;;;;;4.33;3.23;;;18.10;49.30;;;;;;4205286;28;20191;-70
2022/05/03 10:47:03;;;;;;;3.67;3.37;;;18.00;50.60;;;;;;4177617;28;20184;-69
2022/05/03 10:49:10;;;;;;;4.20;3.30;;;17.60;53.60;;;;;;4193696;28;20223;-69
2022/05/03 10:51:13;;;;;;;4.07;3.47;;;18.10;49.40;;;;;;4196893;28;20554;-67
2022/05/03 10:53:19;;;;;;;4.50;3.93;;;18.30;48.00;;;;;;4199665;28;20179;-67
2022/05/03 10:55:22;;;;;;;4.00;3.60;;;17.80;48.90;;;;;;4197413;28;20179;-67
2022/05/03 10:57:24;;;;;;;4.00;3.60;;;17.70;50.10;;;;;;4205310;28;20254;-68
2022/05/03 10:59:48;;;;;;;4.80;3.70;;;17.60;49.60;;;;;;4196274;28;20294;-67
2022/05/03 11:02:06;;;;;;;8.07;3.70;;;17.50;50.20;;;;;;4193515;28;20167;-68
2022/05/03 11:04:09;;;;;;;4.23;3.40;;;17.30;52.10;;;;;;4200283;28;20183;-68
2022/05/03 11:06:18;;;;;;;5.67;3.50;;;17.50;50.90;;;;;;4202986;28;20187;-68
2022/05/03 11:08:22;;;;;;;4.67;3.10;;;17.20;51.60;;;;;;4198323;28;20581;-68
2022/05/03 11:10:42;;;;;;;4.17;3.03;;;17.30;51.50;;;;;;4206518;28;20289;-69
2022/05/03 11:12:49;;;;;;;4.20;3.80;;;17.30;49.60;;;;;;4193790;28;20183;-67
2022/05/03 11:14:54;;;;;;;3.60;3.30;;;17.00;52.70;;;;;;4210366;28;20182;-69
2022/05/03 11:17:14;;;;;;;4.60;3.50;;;17.40;52.20;;;;;;4177323;28;20191;-69
2022/05/03 11:19:21;;;;;;;4.13;3.73;;;17.80;52.80;;;;;;4207232;28;20249;-70